Time;durP1;ratioP1;P1;durP2;ratioP2;P2;SDS_P1;SDS_P2;PMS_P1;PMS_P2;Temp;Humidity;BMP_temperature;BMP_pressure;BME280_temperature;BME280_humidity;BME280_pressure;Samples;Min_cycle;Max_cycle;Signal;HPM_P1;HPM_P2
2022/08/25 00:00:47;;;;;;;5.80;4.83;;;15.50;99.90;;;;;;5117043;28;20186;-82
2022/08/25 00:03:13;;;;;;;8.13;5.00;;;15.50;99.90;;;;;;5116256;28;20654;-82
2022/08/25 00:05:39;;;;;;;5.97;4.97;;;15.50;99.90;;;;;;5117349;28;20177;-82
2022/08/25 00:08:06;;;;;;;5.30;4.80;;;15.40;99.90;;;;;;5117270;28;20557;-81
2022/08/25 00:10:40;;;;;;;5.10;4.63;;;15.50;99.90;;;;;;5116222;28;20696;-80
2022/08/25 00:13:06;;;;;;;5.47;4.77;;;15.40;99.90;;;;;;5117888;28;20175;-82
2022/08/25 00:15:32;;;;;;;5.63;4.67;;;15.40;99.90;;;;;;5118806;28;20252;-81
2022/08/25 00:17:59;;;;;;;6.07;4.97;;;15.30;99.90;;;;;;5117561;28;20205;-80
2022/08/25 00:20:27;;;;;;;4.93;4.43;;;15.30;99.90;;;;;;5118191;28;20187;-79
2022/08/25 00:22:54;;;;;;;7.23;5.00;;;15.30;99.90;;;;;;5118371;28;20183;-80
2022/08/25 00:25:20;;;;;;;6.27;4.57;;;15.30;99.90;;;;;;5118612;28;20181;-82
2022/08/25 00:27:47;;;;;;;6.33;5.17;;;15.20;99.90;;;;;;5118655;28;20206;-82
2022/08/25 00:30:13;;;;;;;6.30;5.67;;;15.20;99.90;;;;;;5119052;28;20546;-81
2022/08/25 00:32:39;;;;;;;8.17;5.57;;;15.20;99.90;;;;;;5121857;27;20168;-81
2022/08/25 00:35:05;;;;;;;5.77;4.70;;;15.10;99.90;;;;;;5122000;28;20182;-81
2022/08/25 00:37:31;;;;;;;5.70;5.10;;;15.10;99.90;;;;;;5123296;28;20175;-82
2022/08/25 00:39:57;;;;;;;9.30;5.20;;;;;;;;;;5122700;28;20549;-81
2022/08/25 00:42:24;;;;;;;5.80;5.13;;;15.10;99.90;;;;;;5118321;28;20183;-80
2022/08/25 00:44:50;;;;;;;5.17;4.60;;;15.10;99.90;;;;;;5119701;28;20263;-80
2022/08/25 00:47:16;;;;;;;4.93;4.43;;;15.10;99.90;;;;;;5118222;28;20219;-79
2022/08/25 00:49:46;;;;;;;4.93;4.43;;;15.10;99.90;;;;;;5119008;28;20203;-81
2022/08/25 00:52:26;;;;;;;5.83;4.47;;;15.10;99.90;;;;;;5120514;28;20519;-81
2022/08/25 00:54:57;;;;;;;5.23;4.70;;;15.00;99.90;;;;;;5119795;27;20175;-81
2022/08/25 00:57:31;;;;;;;5.67;4.60;;;15.00;99.90;;;;;;5117894;28;20183;-81
2022/08/25 00:59:57;;;;;;;7.57;4.80;;;15.00;99.90;;;;;;5117764;28;20203;-80
2022/08/25 01:02:24;;;;;;;5.67;5.07;;;14.90;99.90;;;;;;5119473;28;20253;-80
2022/08/25 01:04:50;;;;;;;6.80;5.23;;;14.90;99.90;;;;;;5118450;28;20190;-82
2022/08/25 01:07:18;;;;;;;7.40;5.27;;;15.00;99.90;;;;;;5119570;27;20183;-81
2022/08/25 01:09:46;;;;;;;7.67;4.97;;;14.90;99.90;;;;;;5117429;28;20226;-82
2022/08/25 01:12:12;;;;;;;6.10;5.27;;;14.90;99.90;;;;;;5117808;28;20172;-81
2022/08/25 01:14:38;;;;;;;5.63;4.70;;;14.90;99.90;;;;;;5118551;28;20168;-82
2022/08/25 01:17:04;;;;;;;6.20;5.13;;;14.90;99.90;;;;;;5118105;28;20184;-81
2022/08/25 01:19:33;;;;;;;5.80;5.20;;;14.90;99.90;;;;;;5118561;28;20206;-81
2022/08/25 01:22:00;;;;;;;7.27;5.30;;;14.90;99.90;;;;;;5118753;28;20184;-79
2022/08/25 01:24:40;;;;;;;8.90;5.57;;;14.90;99.90;;;;;;5117740;28;20183;-81
2022/08/25 01:27:07;;;;;;;6.33;4.83;;;14.80;99.90;;;;;;5118632;28;20179;-80
2022/08/25 01:29:34;;;;;;;6.23;4.97;;;14.80;99.90;;;;;;5117023;28;20215;-80
2022/08/25 01:32:09;;;;;;;5.77;5.20;;;14.80;99.90;;;;;;5118810;28;20167;-81
2022/08/25 01:34:39;;;;;;;5.30;4.80;;;14.80;99.90;;;;;;5118157;28;20179;-81
2022/08/25 01:37:06;;;;;;;6.50;5.90;;;14.80;99.90;;;;;;5117895;28;20663;-81
2022/08/25 01:39:35;;;;;;;7.50;5.70;;;14.80;99.90;;;;;;5117745;28;20532;-81
2022/08/25 01:42:12;;;;;;;6.03;5.47;;;14.80;99.90;;;;;;5118738;28;20179;-80
2022/08/25 01:44:42;;;;;;;6.43;5.13;;;14.70;99.90;;;;;;5119146;28;20171;-81
2022/08/25 01:47:08;;;;;;;6.50;5.40;;;14.70;99.90;;;;;;5118910;28;20504;-81
2022/08/25 01:49:35;;;;;;;6.93;6.10;;;14.70;99.90;;;;;;5118250;28;20210;-80
2022/08/25 01:52:11;;;;;;;6.17;5.57;;;14.60;99.90;;;;;;5119260;28;20171;-82
2022/08/25 01:54:36;;;;;;;7.27;5.63;;;14.60;99.90;;;;;;5117426;28;20171;-81
2022/08/25 01:57:02;;;;;;;7.97;5.30;;;14.60;99.90;;;;;;5116765;28;20167;-81
2022/08/25 01:59:28;;;;;;;6.20;5.60;;;14.50;99.90;;;;;;5117096;28;20191;-81
2022/08/25 02:01:54;;;;;;;8.40;5.17;;;14.50;99.90;;;;;;5117093;28;20187;-80
2022/08/25 02:04:20;;;;;;;7.20;5.27;;;14.50;99.90;;;;;;5117042;28;20199;-81
2022/08/25 02:06:46;;;;;;;6.73;5.17;;;14.40;99.90;;;;;;5116812;28;20186;-80
2022/08/25 02:09:15;;;;;;;6.77;4.77;;;14.40;99.90;;;;;;5116435;28;20207;-82
2022/08/25 02:11:44;;;;;;;5.63;5.03;;;14.40;99.90;;;;;;5118073;28;20258;-82
2022/08/25 02:14:12;;;;;;;7.20;5.20;;;14.30;99.90;;;;;;5117332;28;20252;-82
2022/08/25 02:16:40;;;;;;;5.97;5.03;;;14.30;99.90;;;;;;5117979;28;20168;-81
2022/08/25 02:19:09;;;;;;;5.70;5.10;;;14.30;99.90;;;;;;5117128;28;20195;-80
2022/08/25 02:21:35;;;;;;;7.40;5.57;;;14.30;99.90;;;;;;5116130;28;20179;-80
2022/08/25 02:24:02;;;;;;;8.13;5.90;;;14.30;99.90;;;;;;5116148;28;20175;-79
2022/08/25 02:26:28;;;;;;;6.07;4.73;;;14.20;99.90;;;;;;5117739;28;20572;-80
2022/08/25 02:28:54;;;;;;;7.97;5.27;;;14.20;99.90;;;;;;5115990;28;20211;-80
2022/08/25 02:31:23;;;;;;;7.97;5.53;;;14.20;99.90;;;;;;5116093;28;20231;-82
2022/08/25 02:33:49;;;;;;;6.80;6.07;;;14.20;99.90;;;;;;5117092;28;20209;-82
2022/08/25 02:36:15;;;;;;;7.77;6.20;;;14.20;99.90;;;;;;5115894;28;20179;-80
2022/08/25 02:38:41;;;;;;;10.80;6.17;;;14.20;99.90;;;;;;5116831;28;20187;-80
2022/08/25 02:41:20;;;;;;;6.73;5.77;;;14.20;99.90;;;;;;5117034;28;20171;-79
2022/08/25 02:43:47;;;;;;;6.77;6.07;;;14.20;99.90;;;;;;5115692;28;20186;-80
2022/08/25 02:46:14;;;;;;;6.23;5.50;;;14.10;99.90;;;;;;5116210;28;20186;-80
2022/08/25 02:48:40;;;;;;;7.80;5.80;;;14.10;99.90;;;;;;5116868;28;20209;-81
2022/08/25 02:51:07;;;;;;;6.43;5.83;;;14.10;99.90;;;;;;5116302;28;20655;-81
2022/08/25 02:53:35;;;;;;;7.07;6.37;;;14.10;99.90;;;;;;5117468;28;20495;-79
2022/08/25 02:56:01;;;;;;;6.87;6.23;;;14.10;99.90;;;;;;5117796;28;20603;-81
2022/08/25 02:58:27;;;;;;;6.63;5.90;;;14.00;99.90;;;;;;5117679;28;20218;-80
2022/08/25 03:00:54;;;;;;;7.13;6.43;;;14.00;99.90;;;;;;5116533;28;20172;-80
2022/08/25 03:03:20;;;;;;;8.53;6.60;;;13.90;99.90;;;;;;5117862;28;20562;-80
2022/08/25 03:05:46;;;;;;;7.37;6.10;;;14.00;99.90;;;;;;5115983;28;20200;-80
2022/08/25 03:08:12;;;;;;;8.00;6.63;;;14.00;99.90;;;;;;5117298;28;20219;-81
2022/08/25 03:10:38;;;;;;;7.10;6.13;;;13.90;99.90;;;;;;5115947;28;20174;-81
2022/08/25 03:13:04;;;;;;;7.93;6.63;;;14.00;99.90;;;;;;5117664;28;20567;-80
2022/08/25 03:15:30;;;;;;;7.07;6.37;;;14.00;99.90;;;;;;5117994;28;20163;-81
2022/08/25 03:17:56;;;;;;;7.83;6.60;;;14.00;99.90;;;;;;5116629;28;20171;-81
2022/08/25 03:20:24;;;;;;;8.93;7.03;;;13.90;99.90;;;;;;5117484;28;20179;-81
2022/08/25 03:22:50;;;;;;;8.20;7.40;;;13.90;99.90;;;;;;5119582;28;20171;-81
2022/08/25 03:28:02;;;;;;;8.30;6.73;;;13.90;99.90;;;;;;5119615;28;20206;-81
2022/08/25 03:30:28;;;;;;;9.93;6.97;;;13.80;99.90;;;;;;5118932;28;20167;-80
2022/08/25 03:32:54;;;;;;;8.50;7.33;;;13.80;99.90;;;;;;5121057;28;20182;-81
2022/08/25 03:35:20;;;;;;;9.20;7.23;;;13.80;99.90;;;;;;5119232;28;20167;-82
2022/08/25 03:37:45;;;;;;;7.50;6.80;;;13.80;99.90;;;;;;5118256;28;20649;-81
2022/08/25 03:40:15;;;;;;;7.33;6.63;;;13.70;99.90;;;;;;5120500;28;20683;-81
2022/08/25 03:42:42;;;;;;;9.77;6.63;;;13.70;99.90;;;;;;5122730;28;20192;-80
2022/08/25 03:45:10;;;;;;;6.53;5.93;;;13.60;99.90;;;;;;5122606;28;20254;-81
2022/08/25 03:47:38;;;;;;;9.23;6.70;;;13.60;99.90;;;;;;5115028;28;20175;-81
2022/08/25 03:50:07;;;;;;;8.30;6.57;;;13.60;99.90;;;;;;5116542;28;20207;-81
2022/08/25 03:52:33;;;;;;;9.10;7.27;;;13.60;99.90;;;;;;5115722;28;20175;-82
2022/08/25 03:54:58;;;;;;;11.20;7.03;;;13.60;99.90;;;;;;5116714;28;20182;-81
2022/08/25 03:57:24;;;;;;;11.20;7.00;;;13.60;99.90;;;;;;5115088;28;20180;-81
2022/08/25 03:59:51;;;;;;;12.40;8.03;;;13.60;99.90;;;;;;5118059;28;20191;-82
2022/08/25 04:02:17;;;;;;;9.33;7.37;;;13.60;99.90;;;;;;5119089;28;20275;-79
2022/08/25 04:04:43;;;;;;;8.37;7.57;;;13.60;99.90;;;;;;5119040;28;20636;-81
2022/08/25 04:07:08;;;;;;;10.10;7.50;;;13.50;99.90;;;;;;5120364;28;20201;-80
2022/08/25 04:09:34;;;;;;;10.17;7.57;;;13.50;99.90;;;;;;5120577;28;20257;-80
2022/08/25 04:12:00;;;;;;;8.33;7.50;;;13.50;99.90;;;;;;5118556;28;20170;-79
2022/08/25 04:14:26;;;;;;;8.00;7.00;;;13.50;99.90;;;;;;5118380;28;20167;-81
2022/08/25 04:16:51;;;;;;;7.60;6.63;;;13.40;99.90;;;;;;5119412;28;20640;-80
2022/08/25 04:19:18;;;;;;;8.37;7.57;;;13.40;99.90;;;;;;5119597;28;20191;-79
2022/08/25 04:21:43;;;;;;;11.10;7.83;;;13.40;99.90;;;;;;5120543;28;20178;-81
2022/08/25 04:24:11;;;;;;;7.97;7.23;;;13.40;99.90;;;;;;5118653;28;20172;-80
2022/08/25 04:26:43;;;;;;;8.27;7.47;;;13.30;99.90;;;;;;5118673;28;20183;-80
2022/08/25 04:29:10;;;;;;;9.10;7.60;;;13.30;99.90;;;;;;5119336;28;20203;-81
2022/08/25 04:31:39;;;;;;;7.60;6.87;;;13.30;99.90;;;;;;5118380;28;20175;-81
2022/08/25 04:34:06;;;;;;;8.87;7.23;;;13.30;99.90;;;;;;5119355;28;20164;-80
2022/08/25 04:36:32;;;;;;;8.43;7.57;;;13.30;99.90;;;;;;5118160;28;20172;-80
2022/08/25 04:38:58;;;;;;;8.57;7.57;;;13.30;99.90;;;;;;5118819;28;20718;-81
2022/08/25 04:41:25;;;;;;;8.13;7.33;;;13.30;99.90;;;;;;5117764;28;20202;-81
2022/08/25 04:43:52;;;;;;;9.57;7.23;;;13.30;99.90;;;;;;5119052;28;20647;-80
2022/08/25 04:46:23;;;;;;;8.50;7.43;;;13.30;99.90;;;;;;5119434;28;20176;-79
2022/08/25 04:48:51;;;;;;;7.43;6.73;;;13.30;99.90;;;;;;5118584;28;20328;-79
2022/08/25 04:51:20;;;;;;;11.40;7.33;;;13.20;99.90;;;;;;5117683;28;20175;-80
2022/08/25 04:53:46;;;;;;;9.20;7.97;;;13.20;99.90;;;;;;5100668;28;20208;-80
2022/08/25 04:56:14;;;;;;;9.43;7.93;;;13.20;99.90;;;;;;5118715;28;20191;-80
2022/08/25 04:58:40;;;;;;;8.43;7.57;;;13.20;99.90;;;;;;5117220;28;20695;-80
2022/08/25 05:01:16;;;;;;;8.93;7.77;;;13.20;99.90;;;;;;5117227;28;20203;-79
2022/08/25 05:03:42;;;;;;;8.87;7.10;;;13.20;99.90;;;;;;5116985;28;20191;-79
2022/08/25 05:06:08;;;;;;;14.43;8.00;;;13.20;99.90;;;;;;5118471;28;20207;-79
2022/08/25 05:08:35;;;;;;;10.23;7.77;;;13.20;99.90;;;;;;5117647;28;20241;-79
2022/08/25 05:11:05;;;;;;;9.80;7.70;;;13.20;99.90;;;;;;5115018;28;20181;-79
2022/08/25 05:13:31;;;;;;;7.97;7.17;;;13.20;99.90;;;;;;5118465;28;20263;-79
2022/08/25 05:15:58;;;;;;;11.60;7.40;;;13.30;99.90;;;;;;5117740;28;20181;-81
2022/08/25 05:18:27;;;;;;;8.57;7.47;;;13.30;99.90;;;;;;5118487;28;20540;-81
2022/08/25 05:20:54;;;;;;;8.40;7.50;;;13.30;99.90;;;;;;5117792;28;20206;-82
2022/08/25 05:23:22;;;;;;;8.30;7.50;;;13.40;99.90;;;;;;5119472;28;20203;-80
2022/08/25 05:25:50;;;;;;;8.73;7.90;;;13.40;99.90;;;;;;5119233;28;20254;-81
2022/08/25 05:28:16;;;;;;;8.43;7.53;;;13.50;99.90;;;;;;5118820;28;20203;-81
2022/08/25 05:30:43;;;;;;;8.13;7.33;;;13.50;99.90;;;;;;5117403;28;20172;-80
2022/08/25 05:33:10;;;;;;;7.80;7.00;;;13.60;99.90;;;;;;5117578;28;20180;-79
2022/08/25 05:35:37;;;;;;;11.87;7.53;;;13.60;99.90;;;;;;5117252;28;20267;-80
2022/08/25 05:38:03;;;;;;;7.90;7.10;;;13.60;99.90;;;;;;5118348;28;20175;-80
2022/08/25 05:40:30;;;;;;;8.57;7.40;;;13.70;99.90;;;;;;5119376;28;20164;-79
2022/08/25 05:42:56;;;;;;;11.53;7.67;;;13.70;99.90;;;;;;5117655;28;20236;-82
2022/08/25 05:45:22;;;;;;;7.83;7.03;;;13.80;99.90;;;;;;5118668;28;20180;-81
2022/08/25 05:47:48;;;;;;;7.17;6.43;;;13.80;99.90;;;;;;5117033;28;20172;-80
2022/08/25 05:50:14;;;;;;;7.97;7.10;;;13.90;99.90;;;;;;5118523;27;20199;-81
2022/08/25 05:52:40;;;;;;;9.50;7.33;;;14.00;99.90;;;;;;5117336;28;20179;-80
2022/08/25 05:55:06;;;;;;;8.73;7.10;;;14.00;99.90;;;;;;5118270;28;20191;-80
2022/08/25 05:57:33;;;;;;;10.70;7.10;;;14.10;99.90;;;;;;5118304;28;20179;-82
2022/08/25 05:59:58;;;;;;;11.87;6.70;;;14.10;99.90;;;;;;5116790;28;20210;-82
2022/08/25 06:02:45;;;;;;;7.10;6.17;;;14.10;99.90;;;;;;5118513;28;20183;-80
2022/08/25 06:05:13;;;;;;;7.47;6.50;;;14.20;99.90;;;;;;5116894;28;20186;-80
2022/08/25 06:07:39;;;;;;;8.27;6.77;;;14.30;99.90;;;;;;5117832;28;20260;-81
2022/08/25 06:10:10;;;;;;;9.53;7.23;;;14.30;99.90;;;;;;5118209;28;20675;-83
2022/08/25 06:12:36;;;;;;;8.87;7.37;;;14.40;99.90;;;;;;5117083;28;20176;-82
2022/08/25 06:15:03;;;;;;;8.13;6.87;;;14.50;99.90;;;;;;5116899;28;20175;-82
2022/08/25 06:17:29;;;;;;;9.47;7.80;;;14.60;99.90;;;;;;5118019;27;20172;-81
2022/08/25 06:19:55;;;;;;;9.70;6.67;;;14.70;99.90;;;;;;5116504;28;20737;-81
2022/08/25 06:22:21;;;;;;;10.20;7.63;;;14.80;99.90;;;;;;5118141;28;20175;-82
2022/08/25 06:24:48;;;;;;;9.63;7.50;;;14.90;99.90;;;;;;5118567;28;20179;-82
2022/08/25 06:27:14;;;;;;;9.50;6.97;;;15.10;99.90;;;;;;5117057;28;20203;-81
2022/08/25 06:29:39;;;;;;;10.20;7.10;;;15.20;99.90;;;;;;5118306;28;20218;-81
2022/08/25 06:32:05;;;;;;;7.87;6.70;;;15.30;99.90;;;;;;5116674;28;20183;-81
2022/08/25 06:34:31;;;;;;;9.10;7.17;;;15.40;99.90;;;;;;5117321;28;20182;-80
2022/08/25 06:36:57;;;;;;;9.03;7.50;;;15.50;99.90;;;;;;5117426;28;20176;-81
2022/08/25 06:39:23;;;;;;;8.13;6.87;;;15.60;99.90;;;;;;5117234;28;20690;-80
2022/08/25 06:41:56;;;;;;;8.53;7.03;;;15.70;99.90;;;;;;5118466;28;20172;-81
2022/08/25 06:44:23;;;;;;;11.03;7.40;;;15.70;99.90;;;;;;5117851;28;20176;-81
2022/08/25 06:46:50;;;;;;;8.83;7.53;;;15.80;99.90;;;;;;5116515;28;20203;-81
2022/08/25 06:49:16;;;;;;;7.87;7.03;;;16.00;99.90;;;;;;5117569;28;20211;-81
2022/08/25 06:51:41;;;;;;;9.57;8.33;;;16.00;99.90;;;;;;5117614;28;20171;-81
2022/08/25 06:54:11;;;;;;;9.50;7.47;;;16.10;99.90;;;;;;5119120;28;20175;-81
2022/08/25 06:56:39;;;;;;;9.00;7.23;;;16.20;99.90;;;;;;5118949;28;20195;-82
2022/08/25 06:59:07;;;;;;;14.30;6.67;;;16.30;99.90;;;;;;5119388;28;20227;-82
2022/08/25 07:01:35;;;;;;;8.43;7.00;;;16.30;99.90;;;;;;5121163;28;20207;-81
2022/08/25 07:04:02;;;;;;;9.97;6.83;;;16.40;99.90;;;;;;5120669;28;20180;-82
2022/08/25 07:06:30;;;;;;;8.40;7.27;;;16.50;99.90;;;;;;5122679;28;20181;-82
2022/08/25 07:08:56;;;;;;;10.37;7.70;;;16.60;99.90;;;;;;5125033;28;20272;-82
2022/08/25 07:11:22;;;;;;;10.93;8.03;;;16.70;99.90;;;;;;5120937;28;20211;-80
2022/08/25 07:13:49;;;;;;;10.23;7.77;;;16.80;99.90;;;;;;5115138;28;20175;-82
2022/08/25 07:16:16;;;;;;;9.57;7.07;;;16.90;99.90;;;;;;5116327;28;20258;-81
2022/08/25 07:18:43;;;;;;;9.73;7.47;;;17.10;99.90;;;;;;5116399;28;20671;-81
2022/08/25 07:21:09;;;;;;;11.27;6.87;;;17.10;99.90;;;;;;5116873;28;20177;-82
2022/08/25 07:23:36;;;;;;;6.83;6.23;;;17.30;99.90;;;;;;5116725;28;20176;-80
2022/08/25 07:26:14;;;;;;;7.67;6.87;;;17.40;99.90;;;;;;5114725;28;20179;-81
2022/08/25 07:28:40;;;;;;;7.57;6.53;;;17.60;99.90;;;;;;5116538;28;20374;-81
2022/08/25 07:31:06;;;;;;;8.53;6.60;;;17.70;99.90;;;;;;5116468;28;20171;-82
2022/08/25 07:33:32;;;;;;;9.40;6.70;;;17.80;99.90;;;;;;5115751;28;20183;-81
2022/08/25 07:35:58;;;;;;;8.83;6.40;;;17.90;99.90;;;;;;5115570;28;20176;-81
2022/08/25 07:38:24;;;;;;;8.17;6.13;;;18.20;99.90;;;;;;5116079;28;20742;-81
2022/08/25 07:40:53;;;;;;;6.80;6.10;;;18.20;99.90;;;;;;5116275;28;20177;-81
2022/08/25 07:43:21;;;;;;;5.73;5.20;;;18.40;99.90;;;;;;5115439;28;20181;-79
2022/08/25 07:45:47;;;;;;;7.13;5.03;;;18.50;99.90;;;;;;5116452;28;20182;-81
2022/08/25 07:48:13;;;;;;;6.40;5.80;;;18.70;99.90;;;;;;5114632;28;20180;-81
2022/08/25 07:50:45;;;;;;;7.23;5.70;;;18.70;99.90;;;;;;5116373;28;20178;-81
2022/08/25 07:53:13;;;;;;;8.30;5.77;;;18.90;99.90;;;;;;5116095;28;20167;-80
2022/08/25 07:55:40;;;;;;;6.97;5.47;;;19.10;99.90;;;;;;5116516;28;20528;-81
2022/08/25 07:58:07;;;;;;;5.70;5.20;;;19.40;99.90;;;;;;5114683;28;20178;-81
2022/08/25 08:00:35;;;;;;;6.00;5.40;;;19.50;99.90;;;;;;5116706;28;20179;-82
2022/08/25 08:03:06;;;;;;;6.03;5.43;;;19.60;99.90;;;;;;5116740;28;20173;-81
2022/08/25 08:05:32;;;;;;;6.40;5.43;;;19.80;99.90;;;;;;5117871;28;20181;-80
2022/08/25 08:07:59;;;;;;;7.70;5.67;;;19.70;99.90;;;;;;5115969;28;20254;-82
2022/08/25 08:10:25;;;;;;;5.67;5.07;;;19.70;99.90;;;;;;5116674;28;20170;-80
2022/08/25 08:12:52;;;;;;;7.03;5.63;;;19.90;99.90;;;;;;5116385;28;20618;-81
2022/08/25 08:15:18;;;;;;;6.23;4.80;;;19.90;99.90;;;;;;5116387;28;20292;-81
2022/08/25 08:17:44;;;;;;;6.13;5.53;;;20.00;99.90;;;;;;5115862;28;20170;-81
2022/08/25 08:20:11;;;;;;;5.10;4.50;;;20.40;99.90;;;;;;5115130;28;20199;-81
2022/08/25 08:22:39;;;;;;;5.60;5.10;;;20.70;99.90;;;;;;5116850;28;20637;-81
2022/08/25 08:25:06;;;;;;;6.17;4.80;;;20.80;99.90;;;;;;5116653;28;20195;-81
2022/08/25 08:27:33;;;;;;;9.80;4.80;;;21.10;99.90;;;;;;5116116;28;20167;-80
2022/08/25 08:29:59;;;;;;;5.93;5.00;;;21.40;99.90;;;;;;5114748;28;20211;-80
2022/08/25 08:32:25;;;;;;;6.57;5.00;;;21.50;99.90;;;;;;5116517;28;20572;-80
2022/08/25 08:34:51;;;;;;;4.80;4.40;;;21.60;99.90;;;;;;5114722;28;20175;-80
2022/08/25 08:37:17;;;;;;;6.37;5.30;;;21.90;99.90;;;;;;5114626;28;20507;-80
2022/08/25 08:39:43;;;;;;;6.53;4.63;;;22.20;99.90;;;;;;5116233;28;20645;-80
2022/08/25 08:42:24;;;;;;;4.87;4.43;;;22.40;99.90;;;;;;5116040;28;20224;-81
2022/08/25 08:45:18;;;;;;;4.93;4.13;;;22.50;99.90;;;;;;5117221;28;20637;-81
2022/08/25 08:47:54;;;;;;;8.03;4.17;;;22.70;99.90;;;;;;5119765;28;20529;-81
2022/08/25 08:50:32;;;;;;;4.37;3.97;;;22.90;99.90;;;;;;5118921;28;20674;-81
2022/08/25 08:53:09;;;;;;;4.63;4.20;;;23.10;99.90;;;;;;5119069;28;20168;-81
2022/08/25 08:55:41;;;;;;;5.37;4.30;;;23.30;99.90;;;;;;5120281;28;20190;-81
2022/08/25 08:58:11;;;;;;;6.07;4.00;;;24.00;99.90;;;;;;5119425;28;20183;-81
2022/08/25 09:00:45;;;;;;;5.90;4.00;;;24.00;99.90;;;;;;5119452;28;20220;-80
2022/08/25 09:03:26;;;;;;;4.20;3.80;;;24.30;99.90;;;;;;5119950;28;20200;-79
2022/08/25 09:05:56;;;;;;;5.33;4.20;;;24.60;99.90;;;;;;5118308;28;20190;-81
2022/08/25 09:08:21;;;;;;;5.30;3.83;;;24.90;99.90;;;;;;5117832;28;20204;-80
2022/08/25 09:11:08;;;;;;;7.50;4.87;;;24.90;99.90;;;;;;5119487;28;20523;-80
2022/08/25 09:13:52;;;;;;;10.83;5.00;;;25.00;99.90;;;;;;5117989;28;20185;-81
2022/08/25 09:16:59;;;;;;;5.10;4.60;;;25.10;99.90;;;;;;5119451;28;20753;-80
2022/08/25 09:19:49;;;;;;;5.23;4.10;;;25.40;99.90;;;;;;5083877;28;20204;-81
2022/08/25 09:22:24;;;;;;;5.97;4.67;;;25.50;99.90;;;;;;5117798;28;20262;-80
2022/08/25 09:25:20;;;;;;;5.77;4.67;;;25.70;99.90;;;;;;5119571;28;20257;-81
2022/08/25 09:27:56;;;;;;;5.10;4.30;;;25.80;99.90;;;;;;5118121;28;20240;-81
2022/08/25 09:30:22;;;;;;;5.27;3.97;;;25.90;99.90;;;;;;5117972;28;20711;-81
2022/08/25 09:33:00;;;;;;;4.37;3.97;;;25.90;99.90;;;;;;5119202;28;20182;-81
2022/08/25 09:35:29;;;;;;;3.90;3.60;;;25.90;99.90;;;;;;5119092;28;20255;-81
2022/08/25 09:37:59;;;;;;;6.17;4.23;;;26.10;99.90;;;;;;5118371;28;20178;-80
2022/08/25 09:40:27;;;;;;;3.90;3.60;;;26.30;99.90;;;;;;5119736;28;20174;-81
2022/08/25 09:42:56;;;;;;;4.07;3.53;;;26.60;99.90;;;;;;5119647;28;20179;-81
2022/08/25 09:45:34;;;;;;;3.87;3.57;;;26.70;99.90;;;;;;5120045;28;20525;-81
2022/08/25 09:48:01;;;;;;;3.77;3.30;;;;;;;;;;5119363;28;20175;-79
2022/08/25 09:50:31;;;;;;;3.90;3.53;;;27.10;99.90;;;;;;5119277;28;20182;-81
2022/08/25 09:53:12;;;;;;;5.57;3.43;;;27.30;99.90;;;;;;5119933;28;20263;-82
2022/08/25 09:55:40;;;;;;;3.83;3.53;;;27.40;99.90;;;;;;5120063;28;20190;-82
2022/08/25 09:58:21;;;;;;;4.47;3.00;;;27.40;99.90;;;;;;5119720;28;20651;-82
2022/08/25 10:01:20;;;;;;;5.37;2.83;;;27.50;99.90;;;;;;5120646;28;20227;-82
2022/08/25 10:03:56;;;;;;;3.70;3.00;;;27.60;99.90;;;;;;5119487;28;20196;-82
2022/08/25 10:06:22;;;;;;;3.07;2.87;;;27.70;99.90;;;;;;5119629;28;20181;-81
2022/08/25 10:08:48;;;;;;;4.37;2.90;;;28.00;99.90;;;;;;5118928;28;20660;-81
2022/08/25 10:11:33;;;;;;;7.07;2.87;;;28.00;99.90;;;;;;5118219;28;20182;-81
2022/08/25 10:14:24;;;;;;;2.80;2.60;;;28.10;99.90;;;;;;5119495;28;20217;-81
2022/08/25 10:16:50;;;;;;;3.00;2.70;;;28.20;99.90;;;;;;5114365;28;20678;-81
2022/08/25 10:19:26;;;;;;;5.10;3.00;;;28.20;99.90;;;;;;5118900;28;20199;-81
2022/08/25 10:22:06;;;;;;;4.27;2.77;;;28.10;99.90;;;;;;5120272;28;20176;-83
2022/08/25 10:24:32;;;;;;;2.77;2.50;;;28.30;99.90;;;;;;5120550;28;20186;-82
2022/08/25 10:27:33;;;;;;;3.10;2.90;;;28.60;99.90;;;;;;5119846;28;20184;-81
2022/08/25 10:30:30;;;;;;;4.97;3.37;;;28.80;99.90;;;;;;5119330;27;20234;-80
2022/08/25 10:33:17;;;;;;;3.00;2.80;;;28.80;99.90;;;;;;5117839;28;20256;-81
2022/08/25 10:36:03;;;;;;;3.90;3.10;;;28.90;99.90;;;;;;5117577;28;20670;-82
2022/08/25 10:38:28;;;;;;;3.53;3.03;;;29.40;99.90;;;;;;5117267;28;20200;-82
2022/08/25 10:41:18;;;;;;;3.33;3.03;;;29.40;99.90;;;;;;5117684;28;20613;-81
2022/08/25 10:47:12;;;;;;;4.20;3.50;;;29.60;99.90;;;;;;5117776;28;20170;-81
2022/08/25 10:50:09;;;;;;;3.87;3.03;;;29.10;99.90;;;;;;5117651;28;20268;-82
2022/08/25 10:52:56;;;;;;;2.93;2.73;;;29.70;99.90;;;;;;5118451;28;20184;-80
2022/08/25 10:55:27;;;;;;;3.47;2.90;;;29.10;99.90;;;;;;5118697;27;20197;-83
2022/08/25 10:58:29;;;;;;;5.47;2.87;;;29.60;99.90;;;;;;5118091;28;20177;-81
2022/08/25 11:01:31;;;;;;;13.47;3.47;;;30.00;99.90;;;;;;5117568;28;20645;-80
2022/08/25 11:04:12;;;;;;;4.67;2.73;;;29.70;99.90;;;;;;5095757;28;20218;-80
2022/08/25 11:06:48;;;;;;;3.07;2.80;;;30.10;99.90;;;;;;5117215;28;20174;-82
2022/08/25 11:09:38;;;;;;;3.20;2.90;;;30.30;99.90;;;;;;5117207;27;20212;-82
2022/08/25 11:12:28;;;;;;;3.30;2.87;;;30.80;99.90;;;;;;5117784;28;20652;-81
2022/08/25 11:15:02;;;;;;;3.83;2.80;;;30.40;99.90;;;;;;5116870;28;20536;-82
2022/08/25 11:17:56;;;;;;;3.27;2.80;;;30.40;99.90;;;;;;5120472;28;20182;-81
2022/08/25 11:20:27;;;;;;;3.50;3.00;;;30.60;99.90;;;;;;5124286;28;20254;-84
2022/08/25 11:23:06;;;;;;;4.43;2.50;;;30.60;99.90;;;;;;5123578;28;20532;-82
2022/08/25 11:25:46;;;;;;;2.70;2.43;;;30.60;99.90;;;;;;5118058;28;20223;-82
2022/08/25 11:28:25;;;;;;;3.97;3.00;;;31.10;99.90;;;;;;5116960;28;20265;-82
2022/08/25 11:30:54;;;;;;;3.10;2.73;;;30.90;99.90;;;;;;5117732;28;20254;-83
2022/08/25 11:33:23;;;;;;;3.40;2.83;;;31.10;99.90;;;;;;5117514;28;20255;-83
2022/08/25 11:35:57;;;;;;;3.00;2.60;;;31.30;99.90;;;;;;5117691;28;20532;-82
2022/08/25 11:38:47;;;;;;;4.27;2.67;;;31.60;99.90;;;;;;5117085;28;20195;-81
2022/08/25 11:41:24;;;;;;;4.23;2.60;;;31.60;99.90;;;;;;5117586;28;20182;-81
2022/08/25 11:44:10;;;;;;;2.87;2.57;;;31.50;99.90;;;;;;5117831;28;20175;-81
2022/08/25 11:46:58;;;;;;;2.57;2.17;;;31.70;99.90;;;;;;5117999;28;20176;-81
2022/08/25 11:50:12;;;;;;;4.80;2.40;;;31.70;99.90;;;;;;5117984;28;20206;-84
2022/08/25 11:52:44;;;;;;;2.87;2.57;;;31.90;99.90;;;;;;5106888;28;20198;-83
2022/08/25 11:55:28;;;;;;;4.70;2.80;;;31.70;99.90;;;;;;5118468;28;20182;-83
2022/08/25 11:58:20;;;;;;;2.60;2.40;;;31.80;99.90;;;;;;5117330;28;20211;-82
2022/08/25 12:00:46;;;;;;;5.20;2.50;;;31.80;99.90;;;;;;5118408;28;20203;-82
2022/08/25 12:03:30;;;;;;;2.33;2.13;;;31.80;99.90;;;;;;5117963;28;20198;-81
2022/08/25 12:06:20;;;;;;;2.83;2.40;;;31.80;99.90;;;;;;5118342;28;20177;-82
2022/08/25 12:09:11;;;;;;;2.73;2.50;;;32.10;99.90;;;;;;5117070;28;20204;-82
2022/08/25 12:11:37;;;;;;;4.43;2.50;;;31.90;98.50;;;;;;5108028;28;20220;-81
2022/08/25 12:14:21;;;;;;;2.83;2.53;;;32.00;99.90;;;;;;5117817;28;20174;-82
2022/08/25 12:16:55;;;;;;;3.50;2.30;;;32.10;99.80;;;;;;5119167;28;20190;-82
2022/08/25 12:19:34;;;;;;;2.50;2.30;;;;;;;;;;5118963;28;20197;-82
2022/08/25 12:22:02;;;;;;;3.23;2.37;;;31.80;99.90;;;;;;5120989;28;20181;-81
2022/08/25 12:24:43;;;;;;;2.97;2.70;;;31.90;99.90;;;;;;5120464;28;20178;-81
2022/08/25 12:27:23;;;;;;;3.73;2.57;;;31.90;99.90;;;;;;5120439;28;20177;-83
2022/08/25 12:30:14;;;;;;;5.47;2.33;;;32.00;98.90;;;;;;5121200;28;20286;-82
2022/08/25 12:33:27;;;;;;;2.77;2.43;;;32.00;99.90;;;;;;5112145;28;20185;-83
2022/08/25 12:36:00;;;;;;;3.10;2.77;;;32.00;99.10;;;;;;5119268;28;20635;-81
2022/08/25 12:38:36;;;;;;;6.90;3.10;;;31.90;97.70;;;;;;5118798;28;20195;-81
2022/08/25 12:41:09;;;;;;;2.70;2.50;;;31.80;97.30;;;;;;5120831;28;20175;-82
2022/08/25 12:43:39;;;;;;;2.57;2.20;;;31.60;99.90;;;;;;5120495;28;20197;-81
2022/08/25 12:46:26;;;;;;;3.00;2.70;;;31.60;96.00;;;;;;5120643;28;20176;-82
2022/08/25 12:49:33;;;;;;;2.77;2.50;;;31.60;99.60;;;;;;5118538;28;20252;-82
2022/08/25 12:52:25;;;;;;;6.03;2.70;;;31.80;98.80;;;;;;5120090;28;20172;-82
2022/08/25 12:54:58;;;;;;;3.47;2.53;;;32.20;99.90;;;;;;5118254;27;20667;-82
2022/08/25 12:57:39;;;;;;;2.50;2.03;;;32.20;98.50;;;;;;5120485;28;20173;-80
2022/08/25 13:00:31;;;;;;;2.93;2.60;;;32.60;98.70;;;;;;5120742;28;20195;-83
2022/08/25 13:03:00;;;;;;;2.47;2.27;;;32.60;97.40;;;;;;5120358;28;20199;-83
2022/08/25 13:05:44;;;;;;;3.03;2.73;;;32.90;99.20;;;;;;5120332;28;20729;-82
2022/08/25 13:08:47;;;;;;;3.63;2.20;;;32.90;95.80;;;;;;5120245;28;20222;-82
2022/08/25 13:11:16;;;;;;;3.17;2.60;;;32.50;94.30;;;;;;5120189;28;20173;-83
2022/08/25 13:13:59;;;;;;;2.80;2.60;;;32.50;95.50;;;;;;5121203;28;20706;-82
2022/08/25 13:16:27;;;;;;;4.10;2.10;;;32.50;96.50;;;;;;5121394;28;20166;-82